sensor_id;sensor_type;location;lat;lon;timestamp;temperature;humidity
21167;DHT22;10741;52.272;9.580;2023-12-22T00:00:44;5.80;99.90
21167;DHT22;10741;52.272;9.580;2023-12-22T00:03:12;5.20;99.90
21167;DHT22;10741;52.272;9.580;2023-12-22T00:05:40;5.20;99.90
21167;DHT22;10741;52.272;9.580;2023-12-22T00:08:06;5.20;99.90
21167;DHT22;10741;52.272;9.580;2023-12-22T00:10:31;5.10;99.90
21167;DHT22;10741;52.272;9.580;2023-12-22T00:12:57;5.80;99.90
21167;DHT22;10741;52.272;9.580;2023-12-22T00:15:23;5.00;99.90
21167;DHT22;10741;52.272;9.580;2023-12-22T00:17:51;5.00;99.90
21167;DHT22;10741;52.272;9.580;2023-12-22T00:20:20;5.10;99.90
21167;DHT22;10741;52.272;9.580;2023-12-22T00:22:46;4.90;99.90
21167;DHT22;10741;52.272;9.580;2023-12-22T00:25:18;4.70;99.90
21167;DHT22;10741;52.272;9.580;2023-12-22T00:27:43;4.80;99.90
21167;DHT22;10741;52.272;9.580;2023-12-22T00:30:09;5.10;99.90
21167;DHT22;10741;52.272;9.580;2023-12-22T00:32:41;5.10;99.90
21167;DHT22;10741;52.272;9.580;2023-12-22T00:35:09;5.20;99.90
21167;DHT22;10741;52.272;9.580;2023-12-22T00:37:35;6.40;99.90
21167;DHT22;10741;52.272;9.580;2023-12-22T00:40:01;4.50;99.90
21167;DHT22;10741;52.272;9.580;2023-12-22T00:42:30;5.20;99.90
21167;DHT22;10741;52.272;9.580;2023-12-22T00:44:57;5.30;99.90
21167;DHT22;10741;52.272;9.580;2023-12-22T00:47:22;5.30;99.90
21167;DHT22;10741;52.272;9.580;2023-12-22T00:49:48;5.30;99.90
21167;DHT22;10741;52.272;9.580;2023-12-22T00:52:13;5.30;99.90
21167;DHT22;10741;52.272;9.580;2023-12-22T00:54:40;5.30;99.90
21167;DHT22;10741;52.272;9.580;2023-12-22T00:57:05;5.60;99.90
21167;DHT22;10741;52.272;9.580;2023-12-22T00:59:31;5.20;99.90
21167;DHT22;10741;52.272;9.580;2023-12-22T01:01:57;5.30;99.90
21167;DHT22;10741;52.272;9.580;2023-12-22T01:04:22;5.30;99.90
21167;DHT22;10741;52.272;9.580;2023-12-22T01:06:49;5.20;99.90
21167;DHT22;10741;52.272;9.580;2023-12-22T01:09:21;5.30;99.90
21167;DHT22;10741;52.272;9.580;2023-12-22T01:11:48;5.70;99.90
21167;DHT22;10741;52.272;9.580;2023-12-22T01:14:13;5.40;99.90
21167;DHT22;10741;52.272;9.580;2023-12-22T01:16:43;5.10;99.90
21167;DHT22;10741;52.272;9.580;2023-12-22T01:19:13;5.70;99.90
21167;DHT22;10741;52.272;9.580;2023-12-22T01:21:39;6.20;99.90
21167;DHT22;10741;52.272;9.580;2023-12-22T01:24:07;4.60;99.90
21167;DHT22;10741;52.272;9.580;2023-12-22T01:26:39;4.40;99.90
21167;DHT22;10741;52.272;9.580;2023-12-22T01:29:17;5.40;99.90
21167;DHT22;10741;52.272;9.580;2023-12-22T01:31:43;5.40;99.90
21167;DHT22;10741;52.272;9.580;2023-12-22T01:34:09;5.30;99.90
21167;DHT22;10741;52.272;9.580;2023-12-22T01:36:35;5.30;99.90
21167;DHT22;10741;52.272;9.580;2023-12-22T01:39:00;5.20;99.90
21167;DHT22;10741;52.272;9.580;2023-12-22T01:41:26;5.20;99.90
21167;DHT22;10741;52.272;9.580;2023-12-22T01:43:51;5.10;99.90
21167;DHT22;10741;52.272;9.580;2023-12-22T01:46:17;5.30;99.90
21167;DHT22;10741;52.272;9.580;2023-12-22T01:48:43;5.20;99.90
21167;DHT22;10741;52.272;9.580;2023-12-22T01:51:09;6.00;99.90
21167;DHT22;10741;52.272;9.580;2023-12-22T01:53:38;5.20;99.90
21167;DHT22;10741;52.272;9.580;2023-12-22T01:56:05;5.70;99.90
21167;DHT22;10741;52.272;9.580;2023-12-22T01:58:33;5.30;99.90
21167;DHT22;10741;52.272;9.580;2023-12-22T02:01:01;5.30;99.90
21167;DHT22;10741;52.272;9.580;2023-12-22T02:03:27;5.20;99.90
21167;DHT22;10741;52.272;9.580;2023-12-22T02:05:54;5.20;99.90
21167;DHT22;10741;52.272;9.580;2023-12-22T02:08:21;5.20;99.90
21167;DHT22;10741;52.272;9.580;2023-12-22T02:10:48;5.20;99.90
21167;DHT22;10741;52.272;9.580;2023-12-22T02:13:14;5.20;99.90
21167;DHT22;10741;52.272;9.580;2023-12-22T02:15:40;5.20;99.90
21167;DHT22;10741;52.272;9.580;2023-12-22T02:18:23;5.10;99.90
21167;DHT22;10741;52.272;9.580;2023-12-22T02:20:50;5.10;99.90
21167;DHT22;10741;52.272;9.580;2023-12-22T02:23:16;5.00;99.90
21167;DHT22;10741;52.272;9.580;2023-12-22T02:25:41;4.70;99.90
21167;DHT22;10741;52.272;9.580;2023-12-22T02:28:10;4.70;99.90
21167;DHT22;10741;52.272;9.580;2023-12-22T02:33:17;4.40;99.90
21167;DHT22;10741;52.272;9.580;2023-12-22T02:35:44;4.20;99.90
21167;DHT22;10741;52.272;9.580;2023-12-22T02:38:12;4.20;99.90
21167;DHT22;10741;52.272;9.580;2023-12-22T02:40:38;4.20;99.90
21167;DHT22;10741;52.272;9.580;2023-12-22T02:43:15;4.20;99.90
21167;DHT22;10741;52.272;9.580;2023-12-22T02:45:43;4.80;99.90
21167;DHT22;10741;52.272;9.580;2023-12-22T02:48:09;3.30;99.90
21167;DHT22;10741;52.272;9.580;2023-12-22T02:50:35;4.50;99.90
21167;DHT22;10741;52.272;9.580;2023-12-22T02:53:03;4.50;99.90
21167;DHT22;10741;52.272;9.580;2023-12-22T02:55:29;4.60;99.90
21167;DHT22;10741;52.272;9.580;2023-12-22T02:58:03;4.70;99.90
21167;DHT22;10741;52.272;9.580;2023-12-22T03:00:31;5.80;99.90
21167;DHT22;10741;52.272;9.580;2023-12-22T03:02:57;4.90;99.90
21167;DHT22;10741;52.272;9.580;2023-12-22T03:05:25;4.60;99.90
21167;DHT22;10741;52.272;9.580;2023-12-22T03:07:50;6.70;99.90
21167;DHT22;10741;52.272;9.580;2023-12-22T03:10:16;4.60;99.90
21167;DHT22;10741;52.272;9.580;2023-12-22T03:12:41;4.40;99.90
21167;DHT22;10741;52.272;9.580;2023-12-22T03:15:09;5.30;99.90
21167;DHT22;10741;52.272;9.580;2023-12-22T03:17:37;4.70;99.90
21167;DHT22;10741;52.272;9.580;2023-12-22T03:20:02;4.70;99.90
21167;DHT22;10741;52.272;9.580;2023-12-22T03:22:28;4.70;99.90
21167;DHT22;10741;52.272;9.580;2023-12-22T03:24:54;4.70;99.90
21167;DHT22;10741;52.272;9.580;2023-12-22T03:27:19;4.70;99.90
21167;DHT22;10741;52.272;9.580;2023-12-22T03:29:45;5.60;99.90
21167;DHT22;10741;52.272;9.580;2023-12-22T03:32:11;4.70;99.90
21167;DHT22;10741;52.272;9.580;2023-12-22T03:34:36;4.60;99.90
21167;DHT22;10741;52.272;9.580;2023-12-22T03:37:02;4.60;99.90
21167;DHT22;10741;52.272;9.580;2023-12-22T03:39:27;4.60;99.90
21167;DHT22;10741;52.272;9.580;2023-12-22T03:41:53;4.70;99.90
21167;DHT22;10741;52.272;9.580;2023-12-22T03:44:18;4.70;99.90
21167;DHT22;10741;52.272;9.580;2023-12-22T03:46:44;4.70;99.90
21167;DHT22;10741;52.272;9.580;2023-12-22T03:49:10;4.60;99.90
21167;DHT22;10741;52.272;9.580;2023-12-22T03:51:35;5.30;99.90
21167;DHT22;10741;52.272;9.580;2023-12-22T03:54:03;4.50;99.90
21167;DHT22;10741;52.272;9.580;2023-12-22T03:56:28;4.60;99.90
21167;DHT22;10741;52.272;9.580;2023-12-22T03:58:55;4.70;99.90
21167;DHT22;10741;52.272;9.580;2023-12-22T04:01:21;4.80;99.90
21167;DHT22;10741;52.272;9.580;2023-12-22T04:03:46;4.80;99.90
21167;DHT22;10741;52.272;9.580;2023-12-22T04:06:11;4.70;99.90
21167;DHT22;10741;52.272;9.580;2023-12-22T04:08:39;4.80;99.90
21167;DHT22;10741;52.272;9.580;2023-12-22T04:11:05;4.80;99.90
21167;DHT22;10741;52.272;9.580;2023-12-22T04:13:31;4.80;99.90
21167;DHT22;10741;52.272;9.580;2023-12-22T04:15:57;5.30;99.90
21167;DHT22;10741;52.272;9.580;2023-12-22T04:18:23;4.80;99.90
21167;DHT22;10741;52.272;9.580;2023-12-22T04:20:48;4.90;99.90
21167;DHT22;10741;52.272;9.580;2023-12-22T04:23:16;4.90;99.90
21167;DHT22;10741;52.272;9.580;2023-12-22T04:25:42;4.90;99.90
21167;DHT22;10741;52.272;9.580;2023-12-22T04:28:08;5.00;99.90
21167;DHT22;10741;52.272;9.580;2023-12-22T04:30:33;5.00;99.90
21167;DHT22;10741;52.272;9.580;2023-12-22T04:33:02;5.00;99.90
21167;DHT22;10741;52.272;9.580;2023-12-22T04:35:28;5.00;99.90
21167;DHT22;10741;52.272;9.580;2023-12-22T04:37:53;5.00;99.90
21167;DHT22;10741;52.272;9.580;2023-12-22T04:40:19;5.10;99.90
21167;DHT22;10741;52.272;9.580;2023-12-22T04:42:45;5.10;99.90
21167;DHT22;10741;52.272;9.580;2023-12-22T04:45:10;5.20;99.90
21167;DHT22;10741;52.272;9.580;2023-12-22T04:47:36;5.20;99.90
21167;DHT22;10741;52.272;9.580;2023-12-22T04:50:01;5.20;99.90
21167;DHT22;10741;52.272;9.580;2023-12-22T04:52:27;5.20;99.90
21167;DHT22;10741;52.272;9.580;2023-12-22T04:54:54;5.30;99.90
21167;DHT22;10741;52.272;9.580;2023-12-22T04:57:19;5.30;99.90
21167;DHT22;10741;52.272;9.580;2023-12-22T04:59:45;5.20;99.90
21167;DHT22;10741;52.272;9.580;2023-12-22T05:02:10;6.10;99.90
21167;DHT22;10741;52.272;9.580;2023-12-22T05:04:36;5.20;99.90
21167;DHT22;10741;52.272;9.580;2023-12-22T05:07:01;5.20;99.90
21167;DHT22;10741;52.272;9.580;2023-12-22T05:09:33;5.20;99.90
21167;DHT22;10741;52.272;9.580;2023-12-22T05:11:58;5.20;99.90
21167;DHT22;10741;52.272;9.580;2023-12-22T05:14:24;4.90;99.90
21167;DHT22;10741;52.272;9.580;2023-12-22T05:16:49;4.80;99.90
21167;DHT22;10741;52.272;9.580;2023-12-22T05:19:16;5.00;99.90
21167;DHT22;10741;52.272;9.580;2023-12-22T05:21:44;4.70;99.90
21167;DHT22;10741;52.272;9.580;2023-12-22T05:24:10;4.80;99.90
21167;DHT22;10741;52.272;9.580;2023-12-22T05:26:35;4.90;99.90
21167;DHT22;10741;52.272;9.580;2023-12-22T05:29:01;5.30;99.90
21167;DHT22;10741;52.272;9.580;2023-12-22T05:31:26;4.90;99.90
21167;DHT22;10741;52.272;9.580;2023-12-22T05:33:53;5.10;99.90
21167;DHT22;10741;52.272;9.580;2023-12-22T05:36:19;5.00;99.90
21167;DHT22;10741;52.272;9.580;2023-12-22T05:38:45;4.90;99.90
21167;DHT22;10741;52.272;9.580;2023-12-22T05:41:11;5.00;99.90
21167;DHT22;10741;52.272;9.580;2023-12-22T05:43:36;5.10;99.90
21167;DHT22;10741;52.272;9.580;2023-12-22T05:46:03;5.20;99.90
21167;DHT22;10741;52.272;9.580;2023-12-22T05:48:28;5.20;99.90
21167;DHT22;10741;52.272;9.580;2023-12-22T05:50:57;5.10;99.90
21167;DHT22;10741;52.272;9.580;2023-12-22T05:53:23;5.00;99.90
21167;DHT22;10741;52.272;9.580;2023-12-22T05:55:49;5.50;99.90
21167;DHT22;10741;52.272;9.580;2023-12-22T05:58:14;5.10;99.90
21167;DHT22;10741;52.272;9.580;2023-12-22T06:00:43;5.10;99.90
21167;DHT22;10741;52.272;9.580;2023-12-22T06:03:10;5.10;99.90
21167;DHT22;10741;52.272;9.580;2023-12-22T06:05:35;5.20;99.90
21167;DHT22;10741;52.272;9.580;2023-12-22T06:08:01;5.10;99.90
21167;DHT22;10741;52.272;9.580;2023-12-22T06:10:26;7.00;99.90
21167;DHT22;10741;52.272;9.580;2023-12-22T06:12:52;5.00;99.90
21167;DHT22;10741;52.272;9.580;2023-12-22T06:15:17;4.80;99.90
21167;DHT22;10741;52.272;9.580;2023-12-22T06:17:43;4.80;99.90
21167;DHT22;10741;52.272;9.580;2023-12-22T06:20:09;4.90;99.90
21167;DHT22;10741;52.272;9.580;2023-12-22T06:22:35;4.90;99.90
21167;DHT22;10741;52.272;9.580;2023-12-22T06:25:01;4.80;99.90
21167;DHT22;10741;52.272;9.580;2023-12-22T06:27:34;4.80;99.90
21167;DHT22;10741;52.272;9.580;2023-12-22T06:30:00;4.80;99.90
21167;DHT22;10741;52.272;9.580;2023-12-22T06:32:26;4.80;99.90
21167;DHT22;10741;52.272;9.580;2023-12-22T06:34:51;4.80;99.90
21167;DHT22;10741;52.272;9.580;2023-12-22T06:37:17;4.80;99.90
21167;DHT22;10741;52.272;9.580;2023-12-22T06:39:42;4.80;99.90
21167;DHT22;10741;52.272;9.580;2023-12-22T06:42:08;4.70;99.90
21167;DHT22;10741;52.272;9.580;2023-12-22T06:44:38;4.80;99.90
21167;DHT22;10741;52.272;9.580;2023-12-22T06:47:06;4.80;99.90
21167;DHT22;10741;52.272;9.580;2023-12-22T06:49:32;4.50;99.90
21167;DHT22;10741;52.272;9.580;2023-12-22T06:51:57;3.90;99.90
21167;DHT22;10741;52.272;9.580;2023-12-22T06:54:23;3.40;99.90
21167;DHT22;10741;52.272;9.580;2023-12-22T06:56:48;3.20;99.90
21167;DHT22;10741;52.272;9.580;2023-12-22T06:59:14;3.10;99.90
21167;DHT22;10741;52.272;9.580;2023-12-22T07:01:40;3.20;99.90
21167;DHT22;10741;52.272;9.580;2023-12-22T07:04:05;3.70;99.90
21167;DHT22;10741;52.272;9.580;2023-12-22T07:06:33;4.00;99.90
21167;DHT22;10741;52.272;9.580;2023-12-22T07:11:50;4.10;99.90
21167;DHT22;10741;52.272;9.580;2023-12-22T07:14:17;4.20;99.90
21167;DHT22;10741;52.272;9.580;2023-12-22T07:16:42;4.30;99.90
21167;DHT22;10741;52.272;9.580;2023-12-22T07:19:08;4.30;99.90
21167;DHT22;10741;52.272;9.580;2023-12-22T07:21:34;4.40;99.90
21167;DHT22;10741;52.272;9.580;2023-12-22T07:24:00;4.40;99.90
21167;DHT22;10741;52.272;9.580;2023-12-22T07:26:28;4.60;99.90
21167;DHT22;10741;52.272;9.580;2023-12-22T07:28:54;5.50;99.90
21167;DHT22;10741;52.272;9.580;2023-12-22T07:31:20;4.70;99.90
21167;DHT22;10741;52.272;9.580;2023-12-22T07:33:46;4.80;99.90
21167;DHT22;10741;52.272;9.580;2023-12-22T07:36:11;4.80;99.90
21167;DHT22;10741;52.272;9.580;2023-12-22T07:38:37;4.90;99.90
21167;DHT22;10741;52.272;9.580;2023-12-22T07:41:05;5.00;99.90
21167;DHT22;10741;52.272;9.580;2023-12-22T07:43:30;5.40;99.90
21167;DHT22;10741;52.272;9.580;2023-12-22T07:45:56;5.20;99.90
21167;DHT22;10741;52.272;9.580;2023-12-22T07:48:21;5.20;99.90
21167;DHT22;10741;52.272;9.580;2023-12-22T07:50:47;5.30;99.90
21167;DHT22;10741;52.272;9.580;2023-12-22T07:53:12;5.30;99.90
21167;DHT22;10741;52.272;9.580;2023-12-22T07:55:38;5.30;99.90
21167;DHT22;10741;52.272;9.580;2023-12-22T07:58:05;5.80;99.90
21167;DHT22;10741;52.272;9.580;2023-12-22T08:00:31;5.30;99.90
21167;DHT22;10741;52.272;9.580;2023-12-22T08:02:57;5.30;99.90
21167;DHT22;10741;52.272;9.580;2023-12-22T08:05:22;5.30;99.90
21167;DHT22;10741;52.272;9.580;2023-12-22T08:07:48;5.30;99.90
21167;DHT22;10741;52.272;9.580;2023-12-22T08:10:13;5.30;99.90
21167;DHT22;10741;52.272;9.580;2023-12-22T08:12:39;5.30;99.90
21167;DHT22;10741;52.272;9.580;2023-12-22T08:15:05;5.10;99.90
21167;DHT22;10741;52.272;9.580;2023-12-22T08:17:31;5.40;99.90
21167;DHT22;10741;52.272;9.580;2023-12-22T08:19:57;5.60;99.90
21167;DHT22;10741;52.272;9.580;2023-12-22T08:22:22;5.70;99.90
21167;DHT22;10741;52.272;9.580;2023-12-22T08:24:51;5.60;99.90
21167;DHT22;10741;52.272;9.580;2023-12-22T08:27:17;5.50;99.90
21167;DHT22;10741;52.272;9.580;2023-12-22T08:29:43;5.70;99.90
21167;DHT22;10741;52.272;9.580;2023-12-22T08:32:09;6.00;99.90
21167;DHT22;10741;52.272;9.580;2023-12-22T08:34:44;6.20;99.90
21167;DHT22;10741;52.272;9.580;2023-12-22T08:37:09;6.30;99.90
21167;DHT22;10741;52.272;9.580;2023-12-22T08:39:35;6.30;99.90
21167;DHT22;10741;52.272;9.580;2023-12-22T08:42:00;6.20;99.90
21167;DHT22;10741;52.272;9.580;2023-12-22T08:44:26;6.20;99.90
21167;DHT22;10741;52.272;9.580;2023-12-22T08:46:52;6.10;99.90
21167;DHT22;10741;52.272;9.580;2023-12-22T08:49:18;6.10;99.90
21167;DHT22;10741;52.272;9.580;2023-12-22T08:51:43;6.00;99.90
21167;DHT22;10741;52.272;9.580;2023-12-22T08:54:09;6.00;99.90
21167;DHT22;10741;52.272;9.580;2023-12-22T08:56:34;6.00;99.90
21167;DHT22;10741;52.272;9.580;2023-12-22T08:59:00;5.90;99.90
21167;DHT22;10741;52.272;9.580;2023-12-22T09:01:26;5.90;99.90
21167;DHT22;10741;52.272;9.580;2023-12-22T09:03:52;6.00;99.90
21167;DHT22;10741;52.272;9.580;2023-12-22T09:06:19;6.00;99.90
21167;DHT22;10741;52.272;9.580;2023-12-22T09:08:45;6.00;99.90
21167;DHT22;10741;52.272;9.580;2023-12-22T09:11:16;6.00;99.90
21167;DHT22;10741;52.272;9.580;2023-12-22T09:13:42;6.00;99.90
21167;DHT22;10741;52.272;9.580;2023-12-22T09:16:08;5.90;99.90
21167;DHT22;10741;52.272;9.580;2023-12-22T09:18:35;5.90;99.90
21167;DHT22;10741;52.272;9.580;2023-12-22T09:21:01;6.00;99.90
21167;DHT22;10741;52.272;9.580;2023-12-22T09:23:26;6.00;99.90
21167;DHT22;10741;52.272;9.580;2023-12-22T09:25:52;6.10;99.90
21167;DHT22;10741;52.272;9.580;2023-12-22T09:28:17;6.10;99.90
21167;DHT22;10741;52.272;9.580;2023-12-22T09:30:43;6.10;99.90
21167;DHT22;10741;52.272;9.580;2023-12-22T09:33:09;6.20;99.90
21167;DHT22;10741;52.272;9.580;2023-12-22T09:35:36;6.10;99.90
21167;DHT22;10741;52.272;9.580;2023-12-22T09:38:02;5.90;99.90
21167;DHT22;10741;52.272;9.580;2023-12-22T09:40:27;5.90;99.90
21167;DHT22;10741;52.272;9.580;2023-12-22T09:42:55;5.90;99.90
21167;DHT22;10741;52.272;9.580;2023-12-22T09:45:21;5.80;99.90
21167;DHT22;10741;52.272;9.580;2023-12-22T09:47:48;5.80;99.90
21167;DHT22;10741;52.272;9.580;2023-12-22T09:50:15;5.70;99.90
21167;DHT22;10741;52.272;9.580;2023-12-22T09:52:42;5.70;99.90
21167;DHT22;10741;52.272;9.580;2023-12-22T09:55:09;5.70;99.90
21167;DHT22;10741;52.272;9.580;2023-12-22T09:57:36;5.70;99.90
21167;DHT22;10741;52.272;9.580;2023-12-22T10:00:03;5.80;99.90
21167;DHT22;10741;52.272;9.580;2023-12-22T10:02:31;5.70;99.90
21167;DHT22;10741;52.272;9.580;2023-12-22T10:04:58;5.70;99.90
21167;DHT22;10741;52.272;9.580;2023-12-22T10:07:24;5.80;99.90
21167;DHT22;10741;52.272;9.580;2023-12-22T10:09:51;5.80;99.90
21167;DHT22;10741;52.272;9.580;2023-12-22T10:12:17;5.80;99.90
21167;DHT22;10741;52.272;9.580;2023-12-22T10:14:44;5.80;99.90
21167;DHT22;10741;52.272;9.580;2023-12-22T10:17:10;5.80;99.90
21167;DHT22;10741;52.272;9.580;2023-12-22T10:19:36;5.80;99.90
21167;DHT22;10741;52.272;9.580;2023-12-22T10:22:02;5.90;99.90
21167;DHT22;10741;52.272;9.580;2023-12-22T10:24:41;5.90;99.90
21167;DHT22;10741;52.272;9.580;2023-12-22T10:27:08;5.90;99.90
21167;DHT22;10741;52.272;9.580;2023-12-22T10:29:34;5.90;99.90
21167;DHT22;10741;52.272;9.580;2023-12-22T10:32:03;6.00;99.90
21167;DHT22;10741;52.272;9.580;2023-12-22T10:34:30;6.00;99.90
21167;DHT22;10741;52.272;9.580;2023-12-22T10:36:56;6.00;99.90
21167;DHT22;10741;52.272;9.580;2023-12-22T10:39:22;6.10;99.90
21167;DHT22;10741;52.272;9.580;2023-12-22T10:41:50;6.10;99.90
21167;DHT22;10741;52.272;9.580;2023-12-22T10:44:17;6.20;99.90
21167;DHT22;10741;52.272;9.580;2023-12-22T10:46:47;6.30;99.90
21167;DHT22;10741;52.272;9.580;2023-12-22T10:49:13;6.30;99.90
21167;DHT22;10741;52.272;9.580;2023-12-22T10:51:38;6.40;99.90
21167;DHT22;10741;52.272;9.580;2023-12-22T10:54:04;6.40;99.90
21167;DHT22;10741;52.272;9.580;2023-12-22T10:56:31;6.50;99.90
21167;DHT22;10741;52.272;9.580;2023-12-22T10:58:57;6.50;99.90
21167;DHT22;10741;52.272;9.580;2023-12-22T11:01:27;6.60;99.90
21167;DHT22;10741;52.272;9.580;2023-12-22T11:03:54;8.20;99.90
21167;DHT22;10741;52.272;9.580;2023-12-22T11:06:23;6.70;99.90
21167;DHT22;10741;52.272;9.580;2023-12-22T11:08:53;6.80;99.90
21167;DHT22;10741;52.272;9.580;2023-12-22T11:11:27;6.80;99.90
21167;DHT22;10741;52.272;9.580;2023-12-22T11:13:56;6.80;99.90
21167;DHT22;10741;52.272;9.580;2023-12-22T11:16:24;6.80;99.90
21167;DHT22;10741;52.272;9.580;2023-12-22T11:18:52;6.80;99.90
21167;DHT22;10741;52.272;9.580;2023-12-22T11:21:22;6.80;99.90
21167;DHT22;10741;52.272;9.580;2023-12-22T11:23:49;6.80;99.90
21167;DHT22;10741;52.272;9.580;2023-12-22T11:26:17;6.90;99.90
21167;DHT22;10741;52.272;9.580;2023-12-22T11:28:45;7.00;99.90
21167;DHT22;10741;52.272;9.580;2023-12-22T11:31:12;7.00;99.90
21167;DHT22;10741;52.272;9.580;2023-12-22T11:33:40;7.00;99.90
21167;DHT22;10741;52.272;9.580;2023-12-22T11:36:08;7.00;99.90
21167;DHT22;10741;52.272;9.580;2023-12-22T11:38:35;7.00;99.90
21167;DHT22;10741;52.272;9.580;2023-12-22T11:41:01;7.00;99.90
21167;DHT22;10741;52.272;9.580;2023-12-22T11:43:27;7.30;99.90
21167;DHT22;10741;52.272;9.580;2023-12-22T11:45:53;7.00;99.90
21167;DHT22;10741;52.272;9.580;2023-12-22T11:48:19;6.90;99.90
21167;DHT22;10741;52.272;9.580;2023-12-22T11:50:46;7.00;99.90
21167;DHT22;10741;52.272;9.580;2023-12-22T11:53:19;6.90;99.90
21167;DHT22;10741;52.272;9.580;2023-12-22T11:56:04;7.20;99.90
21167;DHT22;10741;52.272;9.580;2023-12-22T11:58:43;6.90;99.90
21167;DHT22;10741;52.272;9.580;2023-12-22T12:01:17;6.90;99.90
21167;DHT22;10741;52.272;9.580;2023-12-22T12:03:51;6.90;99.90
21167;DHT22;10741;52.272;9.580;2023-12-22T12:06:31;7.50;99.90
21167;DHT22;10741;52.272;9.580;2023-12-22T12:08:58;6.90;99.90
21167;DHT22;10741;52.272;9.580;2023-12-22T12:14:32;6.90;99.90
21167;DHT22;10741;52.272;9.580;2023-12-22T12:17:03;7.00;99.90
21167;DHT22;10741;52.272;9.580;2023-12-22T12:19:31;7.00;99.90
21167;DHT22;10741;52.272;9.580;2023-12-22T12:21:58;7.80;99.90
21167;DHT22;10741;52.272;9.580;2023-12-22T12:24:24;7.00;99.90
21167;DHT22;10741;52.272;9.580;2023-12-22T12:26:50;7.00;99.90
21167;DHT22;10741;52.272;9.580;2023-12-22T12:29:17;7.10;99.90
21167;DHT22;10741;52.272;9.580;2023-12-22T12:31:43;7.00;99.90
21167;DHT22;10741;52.272;9.580;2023-12-22T12:34:10;7.00;99.90
21167;DHT22;10741;52.272;9.580;2023-12-22T12:36:36;7.00;99.90
21167;DHT22;10741;52.272;9.580;2023-12-22T12:39:07;7.10;99.90
21167;DHT22;10741;52.272;9.580;2023-12-22T12:41:38;7.00;99.90
21167;DHT22;10741;52.272;9.580;2023-12-22T12:44:06;7.00;99.90
21167;DHT22;10741;52.272;9.580;2023-12-22T12:46:36;7.00;99.90
21167;DHT22;10741;52.272;9.580;2023-12-22T12:49:10;7.00;99.90
21167;DHT22;10741;52.272;9.580;2023-12-22T12:51:44;7.00;99.90
21167;DHT22;10741;52.272;9.580;2023-12-22T12:54:11;7.00;99.90
21167;DHT22;10741;52.272;9.580;2023-12-22T12:56:45;7.00;99.90
21167;DHT22;10741;52.272;9.580;2023-12-22T12:59:14;7.00;99.90
21167;DHT22;10741;52.272;9.580;2023-12-22T13:01:44;7.00;99.90
21167;DHT22;10741;52.272;9.580;2023-12-22T13:04:10;7.00;99.90
21167;DHT22;10741;52.272;9.580;2023-12-22T13:06:49;7.00;99.90
21167;DHT22;10741;52.272;9.580;2023-12-22T13:09:16;7.00;99.90
21167;DHT22;10741;52.272;9.580;2023-12-22T13:11:43;7.00;99.90
21167;DHT22;10741;52.272;9.580;2023-12-22T13:14:11;7.00;99.90
21167;DHT22;10741;52.272;9.580;2023-12-22T13:16:39;6.90;99.90
21167;DHT22;10741;52.272;9.580;2023-12-22T13:19:05;6.90;99.90
21167;DHT22;10741;52.272;9.580;2023-12-22T13:21:30;7.00;99.90
21167;DHT22;10741;52.272;9.580;2023-12-22T13:24:12;6.90;99.90
21167;DHT22;10741;52.272;9.580;2023-12-22T13:26:39;6.90;99.90
21167;DHT22;10741;52.272;9.580;2023-12-22T13:29:06;6.90;99.90
21167;DHT22;10741;52.272;9.580;2023-12-22T13:31:32;6.90;99.90
21167;DHT22;10741;52.272;9.580;2023-12-22T13:34:01;7.00;99.90
21167;DHT22;10741;52.272;9.580;2023-12-22T13:36:27;7.00;99.90
21167;DHT22;10741;52.272;9.580;2023-12-22T13:38:53;6.90;99.90
21167;DHT22;10741;52.272;9.580;2023-12-22T13:41:20;6.90;99.90
21167;DHT22;10741;52.272;9.580;2023-12-22T13:43:46;6.90;99.90
21167;DHT22;10741;52.272;9.580;2023-12-22T13:46:14;7.10;99.90
21167;DHT22;10741;52.272;9.580;2023-12-22T13:48:40;6.90;99.90
21167;DHT22;10741;52.272;9.580;2023-12-22T13:51:06;6.90;99.90
21167;DHT22;10741;52.272;9.580;2023-12-22T13:53:32;6.90;99.90
21167;DHT22;10741;52.272;9.580;2023-12-22T13:56:01;6.90;99.90
21167;DHT22;10741;52.272;9.580;2023-12-22T13:58:26;6.90;99.90
21167;DHT22;10741;52.272;9.580;2023-12-22T14:00:52;6.90;99.90
21167;DHT22;10741;52.272;9.580;2023-12-22T14:03:19;6.90;99.90
21167;DHT22;10741;52.272;9.580;2023-12-22T14:05:48;6.80;99.90
21167;DHT22;10741;52.272;9.580;2023-12-22T14:08:15;6.80;99.90
21167;DHT22;10741;52.272;9.580;2023-12-22T14:10:47;6.80;99.90
21167;DHT22;10741;52.272;9.580;2023-12-22T14:13:14;7.50;99.90
21167;DHT22;10741;52.272;9.580;2023-12-22T14:15:42;6.80;99.90
21167;DHT22;10741;52.272;9.580;2023-12-22T14:18:08;6.80;99.90
21167;DHT22;10741;52.272;9.580;2023-12-22T14:20:34;7.00;99.90
21167;DHT22;10741;52.272;9.580;2023-12-22T14:22:59;6.80;99.90
21167;DHT22;10741;52.272;9.580;2023-12-22T14:25:25;6.80;99.90
21167;DHT22;10741;52.272;9.580;2023-12-22T14:27:52;6.80;99.90
21167;DHT22;10741;52.272;9.580;2023-12-22T14:30:25;6.70;99.90
21167;DHT22;10741;52.272;9.580;2023-12-22T14:32:50;6.80;99.90
21167;DHT22;10741;52.272;9.580;2023-12-22T14:35:16;6.80;99.90
21167;DHT22;10741;52.272;9.580;2023-12-22T14:37:41;6.70;99.90
21167;DHT22;10741;52.272;9.580;2023-12-22T14:40:08;6.70;99.90
21167;DHT22;10741;52.272;9.580;2023-12-22T14:42:34;6.70;99.90
21167;DHT22;10741;52.272;9.580;2023-12-22T14:45:00;6.80;99.90
21167;DHT22;10741;52.272;9.580;2023-12-22T14:47:27;6.80;99.90
21167;DHT22;10741;52.272;9.580;2023-12-22T14:49:52;6.80;99.90
21167;DHT22;10741;52.272;9.580;2023-12-22T14:52:18;6.80;99.90
21167;DHT22;10741;52.272;9.580;2023-12-22T14:54:43;8.50;99.90
21167;DHT22;10741;52.272;9.580;2023-12-22T14:57:09;6.70;99.90
21167;DHT22;10741;52.272;9.580;2023-12-22T14:59:35;6.70;99.90
21167;DHT22;10741;52.272;9.580;2023-12-22T15:02:01;6.80;99.90
21167;DHT22;10741;52.272;9.580;2023-12-22T15:04:27;6.80;99.90
21167;DHT22;10741;52.272;9.580;2023-12-22T15:06:52;6.80;99.90
21167;DHT22;10741;52.272;9.580;2023-12-22T15:09:18;6.80;99.90
21167;DHT22;10741;52.272;9.580;2023-12-22T15:11:44;6.80;99.90
21167;DHT22;10741;52.272;9.580;2023-12-22T15:14:11;6.70;99.90
21167;DHT22;10741;52.272;9.580;2023-12-22T15:16:43;6.70;99.90
21167;DHT22;10741;52.272;9.580;2023-12-22T15:19:11;6.60;99.90
21167;DHT22;10741;52.272;9.580;2023-12-22T15:21:37;6.70;99.90
21167;DHT22;10741;52.272;9.580;2023-12-22T15:24:04;6.70;99.90
21167;DHT22;10741;52.272;9.580;2023-12-22T15:26:30;6.70;99.90
21167;DHT22;10741;52.272;9.580;2023-12-22T15:28:56;6.70;99.90
21167;DHT22;10741;52.272;9.580;2023-12-22T15:31:22;6.70;99.90
21167;DHT22;10741;52.272;9.580;2023-12-22T15:33:47;9.00;99.90
21167;DHT22;10741;52.272;9.580;2023-12-22T15:36:19;7.80;99.90
21167;DHT22;10741;52.272;9.580;2023-12-22T15:38:45;6.10;99.90
21167;DHT22;10741;52.272;9.580;2023-12-22T15:41:11;6.40;99.90
21167;DHT22;10741;52.272;9.580;2023-12-22T15:43:41;7.90;99.90
21167;DHT22;10741;52.272;9.580;2023-12-22T15:46:07;6.80;99.90
21167;DHT22;10741;52.272;9.580;2023-12-22T15:48:34;6.80;99.90
21167;DHT22;10741;52.272;9.580;2023-12-22T15:51:09;6.80;99.90